Terminal Aerodrome Forecast
Issued by NWS Omaha/Valley, NE

Home | Current Version | Previous Version | Graphics & Text | Print | Product List | Glossary On
Versions: 1 2 3 4 5 6 7 8 9 10 11 12 13 14 15 16 17 18 19 20 21
000
FTUS43 KOAX 260156 AAA
TAFOFK
TAF AMD
KOFK 260156Z 2602/2624 33018G24KT P6SM OVC008
     FM260900 32017G24KT P6SM OVC015
     FM262300 34015G22KT P6SM SCT250=

USA.gov is the U.S. government's official web portal to all federal, state and local government web resources and services.